createdAt,value
2023-04-12T00:00:12.333Z,50.70
2023-04-12T00:02:42.509Z,50.80
2023-04-12T00:05:11.841Z,50.70
2023-04-12T00:07:40.456Z,50.80
2023-04-12T00:10:10.660Z,50.70
2023-04-12T00:12:40.876Z,50.80
2023-04-12T00:15:11.997Z,50.80
2023-04-12T00:17:40.769Z,50.90
2023-04-12T00:20:12.883Z,51.00
2023-04-12T00:22:42.610Z,50.90
2023-04-12T00:25:11.991Z,50.80
2023-04-12T00:27:40.722Z,50.80
2023-04-12T00:30:11.989Z,50.80
2023-04-12T00:32:40.391Z,50.80
2023-04-12T00:35:09.592Z,50.90
2023-04-12T00:37:38.733Z,50.90
2023-04-12T00:40:11.870Z,50.90
2023-04-12T00:42:40.332Z,50.70
2023-04-12T00:45:11.703Z,50.70
2023-04-12T00:47:42.976Z,50.70
2023-04-12T00:50:12.974Z,50.70
2023-04-12T00:52:41.601Z,50.70
2023-04-12T00:55:10.932Z,50.80
2023-04-12T00:57:41.239Z,50.80
2023-04-12T01:00:13.668Z,51.00
2023-04-12T01:02:47.894Z,50.90
2023-04-12T01:05:22.391Z,50.90
2023-04-12T01:08:06.237Z,51.00
2023-04-12T01:10:46.307Z,51.10
2023-04-12T01:13:32.588Z,51.30
2023-04-12T01:16:13.813Z,51.20
2023-04-12T01:18:50.577Z,51.10
2023-04-12T01:21:26.736Z,51.10
2023-04-12T01:24:23.943Z,51.30
2023-04-12T01:26:52.956Z,51.90
2023-04-12T01:29:25.845Z,51.10
2023-04-12T01:31:59.714Z,51.70
2023-04-12T01:34:32.650Z,51.20
2023-04-12T01:37:04.366Z,51.40
2023-04-12T01:39:35.545Z,51.20
2023-04-12T01:42:04.279Z,51.30
2023-04-12T01:44:34.024Z,51.30
2023-04-12T01:47:02.419Z,51.40
2023-04-12T01:49:37.670Z,51.30
2023-04-12T01:52:13.993Z,51.50
2023-04-12T01:54:45.863Z,51.40
2023-04-12T01:57:16.426Z,51.30
2023-04-12T01:59:48.966Z,51.70
2023-04-12T02:02:17.999Z,51.80
2023-04-12T02:04:48.112Z,51.30
2023-04-12T02:07:18.910Z,51.40
2023-04-12T02:09:47.494Z,51.50
2023-04-12T02:12:15.892Z,51.20
2023-04-12T02:14:45.804Z,51.20
2023-04-12T02:17:14.275Z,51.10
2023-04-12T02:19:42.757Z,51.10
2023-04-12T02:22:12.718Z,51.20
2023-04-12T02:24:41.652Z,51.20
2023-04-12T02:27:10.097Z,51.30
2023-04-12T02:29:39.604Z,51.40
2023-04-12T02:32:09.696Z,51.50
2023-04-12T02:34:38.512Z,51.40
2023-04-12T02:37:17.770Z,51.40
2023-04-12T02:39:46.209Z,51.40
2023-04-12T02:42:14.979Z,51.50
2023-04-12T02:44:47.866Z,51.50
2023-04-12T02:47:18.210Z,51.70
2023-04-12T02:49:49.635Z,51.60
2023-04-12T02:52:20.047Z,51.60
2023-04-12T02:55:01.703Z,51.70
2023-04-12T02:57:30.496Z,51.70
2023-04-12T02:59:59.139Z,51.50
2023-04-12T03:02:36.347Z,51.50
2023-04-12T03:05:08.829Z,52.50
2023-04-12T03:07:42.285Z,51.60
2023-04-12T03:10:12.789Z,51.60
2023-04-12T03:12:49.162Z,51.70
2023-04-12T03:15:23.657Z,51.60
2023-04-12T03:17:55.538Z,51.60
2023-04-12T03:20:29.578Z,51.60
2023-04-12T03:23:05.195Z,51.70
2023-04-12T03:25:37.099Z,51.60
2023-04-12T03:28:25.744Z,51.60
2023-04-12T03:30:54.762Z,51.50
2023-04-12T03:33:29.565Z,51.50
2023-04-12T03:36:03.314Z,51.70
2023-04-12T03:38:33.319Z,51.60
2023-04-12T03:41:01.929Z,51.60
2023-04-12T03:43:38.707Z,51.60
2023-04-12T03:46:17.068Z,51.60
2023-04-12T03:48:50.923Z,51.60
2023-04-12T03:51:22.339Z,51.90
2023-04-12T03:53:51.095Z,51.60
2023-04-12T03:56:20.963Z,51.60
2023-04-12T03:58:53.522Z,51.60
2023-04-12T04:01:23.710Z,51.70
2023-04-12T04:03:54.727Z,51.70
2023-04-12T04:06:27.886Z,51.70
2023-04-12T04:08:58.276Z,51.80
2023-04-12T04:11:28.855Z,51.80
2023-04-12T04:14:05.451Z,51.80
2023-04-12T04:16:34.315Z,51.80
2023-04-12T04:19:06.346Z,51.70
2023-04-12T04:21:35.122Z,51.80
2023-04-12T04:24:04.064Z,51.80
2023-04-12T04:26:38.455Z,51.90
2023-04-12T04:29:18.401Z,51.90
2023-04-12T04:31:47.297Z,52.00
2023-04-12T04:34:19.318Z,52.10
2023-04-12T04:36:49.491Z,52.10
2023-04-12T04:39:28.336Z,52.10
2023-04-12T04:41:59.715Z,52.20
2023-04-12T04:44:37.314Z,52.20
2023-04-12T04:47:08.737Z,52.20
2023-04-12T04:49:39.008Z,52.20
2023-04-12T04:52:20.448Z,52.30
2023-04-12T04:54:50.146Z,52.30
2023-04-12T04:57:19.266Z,52.40
2023-04-12T04:59:47.766Z,52.40
2023-04-12T05:02:18.809Z,52.40
2023-04-12T05:04:48.733Z,52.50
2023-04-12T05:07:20.541Z,52.60
2023-04-12T05:09:50.360Z,52.60
2023-04-12T05:12:20.918Z,52.60
2023-04-12T05:14:58.204Z,52.60
2023-04-12T05:17:37.311Z,52.70
2023-04-12T05:20:10.791Z,52.70
2023-04-12T05:22:40.491Z,52.70
2023-04-12T05:25:10.057Z,52.70
2023-04-12T05:27:46.049Z,52.70
2023-04-12T05:30:17.424Z,52.80
2023-04-12T05:32:46.418Z,52.80
2023-04-12T05:35:18.096Z,52.90
2023-04-12T05:37:47.871Z,52.90
2023-04-12T05:40:16.190Z,53.00
2023-04-12T05:42:44.960Z,52.90
2023-04-12T05:45:13.913Z,53.00
2023-04-12T05:47:44.516Z,53.00
2023-04-12T05:50:12.975Z,53.00
2023-04-12T05:52:42.877Z,53.10
2023-04-12T05:55:11.521Z,53.10
2023-04-12T05:57:42.650Z,53.10
2023-04-12T06:00:17.550Z,53.20
2023-04-12T06:02:48.770Z,53.20
2023-04-12T06:05:18.179Z,53.30
2023-04-12T06:07:49.184Z,53.20
2023-04-12T06:10:18.949Z,53.10
2023-04-12T06:12:53.399Z,53.20
2023-04-12T06:15:22.099Z,53.30
2023-04-12T06:17:55.797Z,53.20
2023-04-12T06:20:24.124Z,53.20
2023-04-12T06:22:54.180Z,53.30
2023-04-12T06:25:23.148Z,53.30
2023-04-12T06:27:52.340Z,53.30
2023-04-12T06:30:22.079Z,53.30
2023-04-12T06:32:53.883Z,53.30
2023-04-12T06:35:23.703Z,53.30
2023-04-12T06:37:53.506Z,53.30
2023-04-12T06:40:21.990Z,53.40
2023-04-12T06:42:50.297Z,53.40
2023-04-12T06:45:23.612Z,53.60
2023-04-12T06:47:51.934Z,53.50
2023-04-12T06:50:20.310Z,53.50
2023-04-12T06:52:48.939Z,53.60
2023-04-12T06:55:19.600Z,53.70
2023-04-12T06:57:47.896Z,53.90
2023-04-12T07:00:17.089Z,53.90
2023-04-12T07:02:45.608Z,54.00
2023-04-12T07:05:14.911Z,54.10
2023-04-12T07:07:43.320Z,54.20
2023-04-12T07:10:12.179Z,54.20
2023-04-12T07:12:41.986Z,54.30
2023-04-12T07:15:11.292Z,54.20
2023-04-12T07:17:39.655Z,54.40
2023-04-12T07:20:08.960Z,54.80
2023-04-12T07:22:37.320Z,54.40
2023-04-12T07:25:10.232Z,54.40
2023-04-12T07:27:38.719Z,54.60
2023-04-12T07:30:10.074Z,54.30
2023-04-12T07:32:38.432Z,54.30
2023-04-12T07:35:08.105Z,54.20
2023-04-12T07:37:37.235Z,54.30
2023-04-12T07:40:07.274Z,54.40
2023-04-12T07:42:35.761Z,54.30
2023-04-12T07:45:04.297Z,54.30
2023-04-12T07:47:34.045Z,54.20
2023-04-12T07:50:04.007Z,54.30
2023-04-12T07:52:33.534Z,54.20
2023-04-12T07:55:01.903Z,54.20
2023-04-12T07:57:33.562Z,54.20
2023-04-12T08:00:02.537Z,54.10
2023-04-12T08:02:42.883Z,54.20
2023-04-12T08:05:11.852Z,54.10
2023-04-12T08:07:40.147Z,53.90
2023-04-12T08:10:10.178Z,53.80
2023-04-12T08:12:38.558Z,53.80
2023-04-12T08:15:08.289Z,53.80
2023-04-12T08:17:36.599Z,53.70
2023-04-12T08:20:08.003Z,53.70
2023-04-12T08:22:36.698Z,53.70
2023-04-12T08:25:05.767Z,53.70
2023-04-12T08:27:34.193Z,53.50
2023-04-12T08:30:02.457Z,53.40
2023-04-12T08:32:30.970Z,53.30
2023-04-12T08:35:00.209Z,53.30
2023-04-12T08:37:29.915Z,53.10
2023-04-12T08:39:59.988Z,53.00
2023-04-12T08:42:28.979Z,53.00
2023-04-12T08:44:57.269Z,52.80
2023-04-12T08:47:26.109Z,52.70
2023-04-12T08:49:54.679Z,52.70
2023-04-12T08:52:23.417Z,52.70
2023-04-12T08:54:53.142Z,52.60
2023-04-12T08:57:22.163Z,52.40
2023-04-12T08:59:51.793Z,52.40
2023-04-12T09:02:20.477Z,52.30
2023-04-12T09:04:49.880Z,52.20
2023-04-12T09:07:18.489Z,52.10
2023-04-12T09:09:48.565Z,52.00
2023-04-12T09:12:20.513Z,52.00
2023-04-12T09:14:49.984Z,51.90
2023-04-12T09:17:24.556Z,51.80
2023-04-12T09:19:53.557Z,51.80
2023-04-12T09:22:35.249Z,51.80
2023-04-12T09:25:04.620Z,51.60
2023-04-12T09:27:48.151Z,51.70
2023-04-12T09:30:19.290Z,51.60
2023-04-12T09:32:49.537Z,51.60
2023-04-12T09:35:18.749Z,51.60
2023-04-12T09:37:47.109Z,51.50
2023-04-12T09:40:15.797Z,51.50
2023-04-12T09:42:54.367Z,51.40
2023-04-12T09:45:26.083Z,51.30
2023-04-12T09:47:56.170Z,51.30
2023-04-12T09:50:26.557Z,51.10
2023-04-12T09:52:55.993Z,51.10
2023-04-12T09:55:26.294Z,50.90
2023-04-12T09:57:57.390Z,50.80
2023-04-12T10:00:27.312Z,50.70
2023-04-12T10:02:57.698Z,50.70
2023-04-12T10:05:27.891Z,50.60
2023-04-12T10:07:58.723Z,50.70
2023-04-12T10:10:30.725Z,50.60
2023-04-12T10:13:02.196Z,50.40
2023-04-12T10:15:31.533Z,50.40
2023-04-12T10:18:04.336Z,50.30
2023-04-12T10:20:33.307Z,50.10
2023-04-12T10:23:07.817Z,49.90
2023-04-12T10:25:36.966Z,49.70
2023-04-12T10:28:18.602Z,49.70
2023-04-12T10:30:48.239Z,49.40
2023-04-12T10:33:19.106Z,49.70
2023-04-12T10:35:54.424Z,49.70
2023-04-12T10:38:26.903Z,49.60
2023-04-12T10:41:20.709Z,49.50
2023-04-12T10:43:51.489Z,49.20
2023-04-12T10:46:53.323Z,49.30
2023-04-12T10:49:22.162Z,49.20
2023-04-12T10:52:19.959Z,49.30
2023-04-12T10:54:48.506Z,49.20
2023-04-12T10:57:45.457Z,49.30
2023-04-12T11:00:17.377Z,49.20
2023-04-12T11:03:12.939Z,49.90
2023-04-12T11:06:16.308Z,49.20
2023-04-12T11:09:19.911Z,49.00
2023-04-12T11:11:48.494Z,49.00
2023-04-12T11:14:17.767Z,49.00
2023-04-12T11:17:26.071Z,49.10
2023-04-12T11:19:58.328Z,49.00
2023-04-12T11:22:32.454Z,49.00
2023-04-12T11:25:03.473Z,49.00
2023-04-12T11:27:32.736Z,48.90
2023-04-12T11:30:02.439Z,48.60
2023-04-12T11:32:35.387Z,48.50
2023-04-12T11:35:03.867Z,48.10
2023-04-12T11:37:35.968Z,47.70
2023-04-12T11:40:06.501Z,47.60
2023-04-12T11:42:35.144Z,47.20
2023-04-12T11:45:10.204Z,47.10
2023-04-12T11:47:45.521Z,47.10
2023-04-12T11:50:14.143Z,47.00
2023-04-12T11:52:42.625Z,46.70
2023-04-12T11:55:11.908Z,46.50
2023-04-12T11:57:40.508Z,46.90
2023-04-12T12:00:10.903Z,47.00
2023-04-12T12:02:52.604Z,46.70
2023-04-12T12:05:36.906Z,46.80
2023-04-12T12:08:07.968Z,46.60
2023-04-12T12:10:51.915Z,46.60
2023-04-12T12:13:25.359Z,46.30
2023-04-12T12:15:54.224Z,46.50
2023-04-12T12:18:29.026Z,46.50
2023-04-12T12:20:57.463Z,46.30
2023-04-12T12:23:31.122Z,46.20
2023-04-12T12:26:14.372Z,46.20
2023-04-12T12:28:51.713Z,46.20
2023-04-12T12:31:22.542Z,45.90
2023-04-12T12:33:56.830Z,46.00
2023-04-12T12:36:32.765Z,45.60
2023-04-12T12:39:08.121Z,45.70
2023-04-12T12:41:36.912Z,45.80
2023-04-12T12:44:06.832Z,45.90
2023-04-12T12:49:07.759Z,46.30
2023-04-12T12:51:36.522Z,46.40
2023-04-12T12:54:05.052Z,46.50
2023-04-12T12:56:33.410Z,46.50
2023-04-12T12:59:01.760Z,46.60
2023-04-12T13:01:30.125Z,46.70
2023-04-12T13:03:58.989Z,46.80
2023-04-12T13:06:29.451Z,46.90
2023-04-12T13:08:57.948Z,47.10
2023-04-12T13:11:26.572Z,47.20
2023-04-12T13:13:54.896Z,47.30
2023-04-12T13:16:25.451Z,47.40
2023-04-12T13:18:55.700Z,47.50
2023-04-12T13:21:24.101Z,47.70
2023-04-12T13:23:53.799Z,47.70
2023-04-12T13:26:24.598Z,47.80
2023-04-12T13:28:52.971Z,47.90
2023-04-12T13:31:21.265Z,48.00
2023-04-12T13:33:49.660Z,48.10
2023-04-12T13:36:17.927Z,48.20
2023-04-12T13:38:46.271Z,48.40
2023-04-12T13:41:15.998Z,48.60
2023-04-12T13:43:44.329Z,48.60
2023-04-12T13:46:13.018Z,48.60
2023-04-12T13:48:41.504Z,48.60
2023-04-12T13:51:10.288Z,48.60
2023-04-12T13:53:38.586Z,48.70
2023-04-12T13:56:08.421Z,48.80
2023-04-12T13:58:39.847Z,48.90
2023-04-12T14:01:08.651Z,49.00
2023-04-12T14:03:37.508Z,49.00
2023-04-12T14:06:06.379Z,49.00
2023-04-12T14:08:35.129Z,49.00
2023-04-12T14:11:04.365Z,49.10
2023-04-12T14:13:32.772Z,49.00
2023-04-12T14:16:02.481Z,49.10
2023-04-12T14:18:30.872Z,49.70
2023-04-12T14:20:59.364Z,49.30
2023-04-12T14:23:27.763Z,49.30
2023-04-12T14:25:56.244Z,49.40
2023-04-12T14:28:30.642Z,49.40
2023-04-12T14:31:00.490Z,49.50
2023-04-12T14:33:30.477Z,49.60
2023-04-12T14:36:01.290Z,49.50
2023-04-12T14:38:29.595Z,49.60
2023-04-12T14:40:57.885Z,49.70
2023-04-12T14:43:26.348Z,49.80
2023-04-12T14:45:54.740Z,49.90
2023-04-12T14:48:23.095Z,49.90
2023-04-12T14:50:54.842Z,49.90
2023-04-12T14:53:23.607Z,50.10
2023-04-12T14:55:52.131Z,50.00
2023-04-12T14:58:20.421Z,50.00
2023-04-12T15:00:49.616Z,50.00
2023-04-12T15:03:19.461Z,50.60
2023-04-12T15:05:48.145Z,50.00
2023-04-12T15:08:18.057Z,50.00
2023-04-12T15:10:46.613Z,50.00
2023-04-12T15:13:14.872Z,50.00
2023-04-12T15:15:47.397Z,50.00
2023-04-12T15:18:16.574Z,50.00
2023-04-12T15:20:44.972Z,50.10
2023-04-12T15:23:13.381Z,50.00
2023-04-12T15:25:43.070Z,50.00
2023-04-12T15:28:11.515Z,50.10
2023-04-12T15:30:40.011Z,50.10
2023-04-12T15:33:08.484Z,50.10
2023-04-12T15:35:37.198Z,50.10
2023-04-12T15:38:05.702Z,50.20
2023-04-12T15:40:34.052Z,50.20
2023-04-12T15:43:03.761Z,50.20
2023-04-12T15:45:32.348Z,50.30
2023-04-12T15:48:00.849Z,50.40
2023-04-12T15:50:29.180Z,50.40
2023-04-12T15:52:59.287Z,50.40
2023-04-12T15:55:27.649Z,50.40
2023-04-12T15:57:57.205Z,50.50
2023-04-12T16:00:28.683Z,50.60
2023-04-12T16:02:57.574Z,50.70
2023-04-12T16:05:26.904Z,50.50
2023-04-12T16:07:56.839Z,50.60
2023-04-12T16:10:25.308Z,50.70
2023-04-12T16:12:55.565Z,50.70
2023-04-12T16:15:24.325Z,50.60
2023-04-12T16:17:54.541Z,50.60
2023-04-12T16:20:23.987Z,50.70
2023-04-12T16:22:56.910Z,50.80
2023-04-12T16:25:28.416Z,50.80
2023-04-12T16:27:57.728Z,50.70
2023-04-12T16:30:26.192Z,50.70
2023-04-12T16:32:56.491Z,50.80
2023-04-12T16:35:25.491Z,50.90
2023-04-12T16:37:54.042Z,50.90
2023-04-12T16:40:22.458Z,50.90
2023-04-12T16:42:51.040Z,51.00
2023-04-12T16:45:19.870Z,51.00
2023-04-12T16:47:48.544Z,51.10
2023-04-12T16:50:18.427Z,51.00
2023-04-12T16:52:46.842Z,51.00
2023-04-12T16:55:15.963Z,51.10
2023-04-12T16:57:45.984Z,51.00
2023-04-12T17:00:21.104Z,51.10
2023-04-12T17:02:51.925Z,51.10
2023-04-12T17:05:24.925Z,51.20
2023-04-12T17:07:55.377Z,51.20
2023-04-12T17:10:25.734Z,51.20
2023-04-12T17:12:56.655Z,51.20
2023-04-12T17:15:26.530Z,51.10
2023-04-12T17:18:01.673Z,51.10
2023-04-12T17:20:32.337Z,51.10
2023-04-12T17:23:01.613Z,51.10
2023-04-12T17:25:31.718Z,51.10
2023-04-12T17:28:00.989Z,51.10
2023-04-12T17:30:30.243Z,51.20
2023-04-12T17:33:01.404Z,51.20
2023-04-12T17:35:32.180Z,51.30
2023-04-12T17:38:00.736Z,51.20
2023-04-12T17:40:29.089Z,51.20
2023-04-12T17:42:57.614Z,51.30
2023-04-12T17:45:26.564Z,51.30
2023-04-12T17:47:55.678Z,51.30
2023-04-12T17:50:24.462Z,51.30
2023-04-12T17:52:55.414Z,51.30
2023-04-12T17:55:25.879Z,51.40
2023-04-12T17:57:54.450Z,51.40
2023-04-12T18:00:24.434Z,51.40
2023-04-12T18:02:53.041Z,51.30
2023-04-12T18:05:21.639Z,51.40
2023-04-12T18:07:50.120Z,51.50
2023-04-12T18:10:21.570Z,51.80
2023-04-12T18:12:50.236Z,51.60
2023-04-12T18:15:19.211Z,51.60
2023-04-12T18:17:47.673Z,51.60
2023-04-12T18:20:16.597Z,51.60
2023-04-12T18:22:46.042Z,51.60
2023-04-12T18:25:14.501Z,51.60
2023-04-12T18:27:47.431Z,51.70
2023-04-12T18:30:17.392Z,51.80
2023-04-12T18:32:45.804Z,51.80
2023-04-12T18:35:14.294Z,51.80
2023-04-12T18:37:43.634Z,51.90
2023-04-12T18:40:13.788Z,51.90
2023-04-12T18:42:44.418Z,51.90
2023-04-12T18:45:13.173Z,52.20
2023-04-12T18:47:42.150Z,52.10
2023-04-12T18:50:11.671Z,52.10
2023-04-12T18:52:40.139Z,52.10
2023-04-12T18:55:09.607Z,52.10
2023-04-12T18:57:38.054Z,52.30
2023-04-12T19:00:14.338Z,52.20
2023-04-12T19:02:42.980Z,52.40
2023-04-12T19:05:14.850Z,52.30
2023-04-12T19:07:43.271Z,52.40
2023-04-12T19:10:12.645Z,52.50
2023-04-12T19:12:41.008Z,52.40
2023-04-12T19:15:12.334Z,52.40
2023-04-12T19:17:40.780Z,52.50
2023-04-12T19:20:10.924Z,52.50
2023-04-12T19:22:39.316Z,52.50
2023-04-12T19:25:09.522Z,52.50
2023-04-12T19:27:39.285Z,52.60
2023-04-12T19:30:12.978Z,52.60
2023-04-12T19:32:42.503Z,52.60
2023-04-12T19:35:11.565Z,52.60
2023-04-12T19:37:40.071Z,52.60
2023-04-12T19:40:12.536Z,52.60
2023-04-12T19:42:41.610Z,52.70
2023-04-12T19:45:11.763Z,52.50
2023-04-12T19:47:44.848Z,52.60
2023-04-12T19:50:15.067Z,52.50
2023-04-12T19:52:44.398Z,52.60
2023-04-12T19:55:13.575Z,52.70
2023-04-12T19:57:42.119Z,52.70
2023-04-12T20:00:19.519Z,52.70
2023-04-12T20:02:50.436Z,52.70
2023-04-12T20:05:19.159Z,52.70
2023-04-12T20:07:47.659Z,52.70
2023-04-12T20:10:16.259Z,53.00
2023-04-12T20:12:44.634Z,52.80
2023-04-12T20:15:15.076Z,53.10
2023-04-12T20:17:45.912Z,52.90
2023-04-12T20:20:15.630Z,52.90
2023-04-12T20:22:46.646Z,52.90
2023-04-12T20:25:16.386Z,53.10
2023-04-12T20:27:51.778Z,53.10
2023-04-12T20:30:22.968Z,53.20
2023-04-12T20:32:54.388Z,53.20
2023-04-12T20:35:23.692Z,53.10
2023-04-12T20:37:52.964Z,53.30
2023-04-12T20:40:23.371Z,53.30
2023-04-12T20:42:52.164Z,53.30
2023-04-12T20:45:23.470Z,53.30
2023-04-12T20:47:52.477Z,53.40
2023-04-12T20:50:23.114Z,53.40
2023-04-12T20:52:52.929Z,53.40
2023-04-12T20:55:22.974Z,53.40
2023-04-12T20:57:55.901Z,53.40
2023-04-12T21:00:25.982Z,54.00
2023-04-12T21:02:54.689Z,53.50
2023-04-12T21:05:23.790Z,53.40
2023-04-12T21:07:52.705Z,53.40
2023-04-12T21:10:22.404Z,53.50
2023-04-12T21:12:51.764Z,53.40
2023-04-12T21:15:22.682Z,53.40
2023-04-12T21:17:53.171Z,53.40
2023-04-12T21:20:24.068Z,53.50
2023-04-12T21:25:21.904Z,53.50
2023-04-12T21:27:51.497Z,53.50
2023-04-12T21:30:20.676Z,53.50
2023-04-12T21:32:49.416Z,53.50
2023-04-12T21:35:21.211Z,53.50
2023-04-12T21:37:50.588Z,53.50
2023-04-12T21:40:19.570Z,53.50
2023-04-12T21:42:48.106Z,53.60
2023-04-12T21:45:16.797Z,53.60
2023-04-12T21:47:45.328Z,53.60
2023-04-12T21:50:14.680Z,53.50
2023-04-12T21:52:45.552Z,53.50
2023-04-12T21:55:14.007Z,53.60
2023-04-12T21:57:42.912Z,53.60
2023-04-12T22:00:13.155Z,53.80
2023-04-12T22:02:42.194Z,53.80
2023-04-12T22:05:11.833Z,53.70
2023-04-12T22:07:41.641Z,53.70
2023-04-12T22:10:12.637Z,53.70
2023-04-12T22:12:41.526Z,53.80
2023-04-12T22:15:12.245Z,53.80
2023-04-12T22:17:41.507Z,53.80
2023-04-12T22:20:12.147Z,53.80
2023-04-12T22:22:41.189Z,53.80
2023-04-12T22:25:15.219Z,53.70
2023-04-12T22:27:46.314Z,53.90
2023-04-12T22:30:15.940Z,53.70
2023-04-12T22:32:44.469Z,53.90
2023-04-12T22:35:13.170Z,53.90
2023-04-12T22:37:43.168Z,54.00
2023-04-12T22:40:14.318Z,54.00
2023-04-12T22:42:46.981Z,54.10
2023-04-12T22:45:15.953Z,54.10
2023-04-12T22:47:44.880Z,54.10
2023-04-12T22:50:13.981Z,54.10
2023-04-12T22:52:43.106Z,54.10
2023-04-12T22:55:16.884Z,54.20
2023-04-12T22:57:45.348Z,54.20
2023-04-12T23:00:18.129Z,54.10
2023-04-12T23:02:48.512Z,54.20
2023-04-12T23:05:17.522Z,54.20
2023-04-12T23:07:46.014Z,54.20
2023-04-12T23:10:15.886Z,54.30
2023-04-12T23:12:44.191Z,54.30
2023-04-12T23:15:13.362Z,54.30
2023-04-12T23:17:42.263Z,54.40
2023-04-12T23:20:14.624Z,54.40
2023-04-12T23:22:57.966Z,54.50
2023-04-12T23:25:39.337Z,54.50
2023-04-12T23:28:13.432Z,54.60
2023-04-12T23:30:45.259Z,54.50
2023-04-12T23:33:13.716Z,54.60
2023-04-12T23:35:43.807Z,54.50
2023-04-12T23:38:15.702Z,54.90
2023-04-12T23:40:46.926Z,54.50
2023-04-12T23:43:15.304Z,54.50
2023-04-12T23:45:43.680Z,54.40
2023-04-12T23:48:12.494Z,54.40
2023-04-12T23:50:41.058Z,54.30
2023-04-12T23:53:10.194Z,54.40
2023-04-12T23:55:38.889Z,54.30
2023-04-12T23:58:09.456Z,54.20
